sensor_id;sensor_type;location;lat;lon;timestamp;temperature;humidity
8872;DHT22;4472;52.092;9.820;2023-03-14T00:02:26;11.00;99.90
8872;DHT22;4472;52.092;9.820;2023-03-14T00:05:15;11.00;99.90
8872;DHT22;4472;52.092;9.820;2023-03-14T00:08:02;11.00;99.90
8872;DHT22;4472;52.092;9.820;2023-03-14T00:10:49;11.10;99.90
8872;DHT22;4472;52.092;9.820;2023-03-14T00:13:37;11.10;99.90
8872;DHT22;4472;52.092;9.820;2023-03-14T00:16:24;11.10;99.90
8872;DHT22;4472;52.092;9.820;2023-03-14T00:19:11;11.20;99.90
8872;DHT22;4472;52.092;9.820;2023-03-14T00:21:59;11.20;99.90
8872;DHT22;4472;52.092;9.820;2023-03-14T00:24:47;11.20;99.90
8872;DHT22;4472;52.092;9.820;2023-03-14T00:27:34;11.20;99.90
8872;DHT22;4472;52.092;9.820;2023-03-14T00:30:22;11.20;99.90
8872;DHT22;4472;52.092;9.820;2023-03-14T00:33:09;11.20;99.90
8872;DHT22;4472;52.092;9.820;2023-03-14T00:35:57;11.20;99.90
8872;DHT22;4472;52.092;9.820;2023-03-14T00:38:48;11.30;99.90
8872;DHT22;4472;52.092;9.820;2023-03-14T00:41:36;11.30;99.90
8872;DHT22;4472;52.092;9.820;2023-03-14T00:44:23;11.30;99.90
8872;DHT22;4472;52.092;9.820;2023-03-14T00:47:10;11.40;99.90
8872;DHT22;4472;52.092;9.820;2023-03-14T00:49:57;11.40;99.90
8872;DHT22;4472;52.092;9.820;2023-03-14T00:52:44;11.50;99.90
8872;DHT22;4472;52.092;9.820;2023-03-14T00:55:37;11.40;99.90
8872;DHT22;4472;52.092;9.820;2023-03-14T00:58:24;11.40;99.90
8872;DHT22;4472;52.092;9.820;2023-03-14T01:01:14;11.40;99.90
8872;DHT22;4472;52.092;9.820;2023-03-14T01:04:01;11.40;99.90
8872;DHT22;4472;52.092;9.820;2023-03-14T01:06:49;11.40;99.90
8872;DHT22;4472;52.092;9.820;2023-03-14T01:09:36;11.30;99.90
8872;DHT22;4472;52.092;9.820;2023-03-14T01:12:24;11.30;99.90
8872;DHT22;4472;52.092;9.820;2023-03-14T01:15:11;11.40;99.90
8872;DHT22;4472;52.092;9.820;2023-03-14T01:17:58;11.40;99.90
8872;DHT22;4472;52.092;9.820;2023-03-14T01:20:46;11.40;99.90
8872;DHT22;4472;52.092;9.820;2023-03-14T01:23:33;11.40;99.90
8872;DHT22;4472;52.092;9.820;2023-03-14T01:26:23;11.40;99.90
8872;DHT22;4472;52.092;9.820;2023-03-14T01:29:12;11.40;99.90
8872;DHT22;4472;52.092;9.820;2023-03-14T01:31:59;11.40;99.90
8872;DHT22;4472;52.092;9.820;2023-03-14T01:34:47;11.40;99.90
8872;DHT22;4472;52.092;9.820;2023-03-14T01:37:34;11.40;99.90
8872;DHT22;4472;52.092;9.820;2023-03-14T01:40:21;11.40;99.90
8872;DHT22;4472;52.092;9.820;2023-03-14T01:43:14;11.40;99.90
8872;DHT22;4472;52.092;9.820;2023-03-14T01:46:35;11.40;99.90
8872;DHT22;4472;52.092;9.820;2023-03-14T01:49:26;11.40;99.90
8872;DHT22;4472;52.092;9.820;2023-03-14T01:52:17;11.50;99.90
8872;DHT22;4472;52.092;9.820;2023-03-14T01:55:08;11.50;99.90
8872;DHT22;4472;52.092;9.820;2023-03-14T01:57:59;11.40;99.90
8872;DHT22;4472;52.092;9.820;2023-03-14T02:00:48;11.40;99.90
8872;DHT22;4472;52.092;9.820;2023-03-14T02:03:44;11.40;99.90
8872;DHT22;4472;52.092;9.820;2023-03-14T02:06:38;11.40;99.90
8872;DHT22;4472;52.092;9.820;2023-03-14T02:09:27;11.40;99.90
8872;DHT22;4472;52.092;9.820;2023-03-14T02:12:16;11.30;99.90
8872;DHT22;4472;52.092;9.820;2023-03-14T02:15:05;11.30;99.90
8872;DHT22;4472;52.092;9.820;2023-03-14T02:17:52;11.20;99.90
8872;DHT22;4472;52.092;9.820;2023-03-14T02:20:47;11.10;99.90
8872;DHT22;4472;52.092;9.820;2023-03-14T02:23:40;11.10;99.90
8872;DHT22;4472;52.092;9.820;2023-03-14T02:26:33;11.10;99.90
8872;DHT22;4472;52.092;9.820;2023-03-14T02:29:23;11.10;99.90
8872;DHT22;4472;52.092;9.820;2023-03-14T02:32:11;11.00;99.90
8872;DHT22;4472;52.092;9.820;2023-03-14T02:35:01;11.00;99.90
8872;DHT22;4472;52.092;9.820;2023-03-14T02:37:53;11.10;99.90
8872;DHT22;4472;52.092;9.820;2023-03-14T02:40:42;11.10;99.90
8872;DHT22;4472;52.092;9.820;2023-03-14T02:43:29;11.00;99.90
8872;DHT22;4472;52.092;9.820;2023-03-14T02:46:18;11.00;99.90
8872;DHT22;4472;52.092;9.820;2023-03-14T02:49:08;11.10;99.90
8872;DHT22;4472;52.092;9.820;2023-03-14T02:51:56;11.00;99.90
8872;DHT22;4472;52.092;9.820;2023-03-14T02:54:43;11.10;99.90
8872;DHT22;4472;52.092;9.820;2023-03-14T02:57:30;11.10;99.90
8872;DHT22;4472;52.092;9.820;2023-03-14T03:00:18;11.20;99.90
8872;DHT22;4472;52.092;9.820;2023-03-14T03:03:07;11.20;99.90
8872;DHT22;4472;52.092;9.820;2023-03-14T03:05:55;11.20;99.90
8872;DHT22;4472;52.092;9.820;2023-03-14T03:08:43;11.20;99.90
8872;DHT22;4472;52.092;9.820;2023-03-14T03:11:30;11.20;99.90
8872;DHT22;4472;52.092;9.820;2023-03-14T03:14:17;11.30;99.90
8872;DHT22;4472;52.092;9.820;2023-03-14T03:17:05;11.20;99.90
8872;DHT22;4472;52.092;9.820;2023-03-14T03:19:53;11.20;99.90
8872;DHT22;4472;52.092;9.820;2023-03-14T03:22:40;11.20;99.90
8872;DHT22;4472;52.092;9.820;2023-03-14T03:25:27;11.20;99.90
8872;DHT22;4472;52.092;9.820;2023-03-14T03:28:15;11.20;99.90
8872;DHT22;4472;52.092;9.820;2023-03-14T03:31:07;11.10;99.90
8872;DHT22;4472;52.092;9.820;2023-03-14T03:33:54;11.10;99.90
8872;DHT22;4472;52.092;9.820;2023-03-14T03:36:42;11.00;99.90
8872;DHT22;4472;52.092;9.820;2023-03-14T03:39:30;11.00;99.90
8872;DHT22;4472;52.092;9.820;2023-03-14T03:42:17;10.90;99.90
8872;DHT22;4472;52.092;9.820;2023-03-14T03:45:05;10.90;99.90
8872;DHT22;4472;52.092;9.820;2023-03-14T03:47:52;10.90;99.90
8872;DHT22;4472;52.092;9.820;2023-03-14T03:50:44;10.90;99.90
8872;DHT22;4472;52.092;9.820;2023-03-14T03:53:32;10.80;99.90
8872;DHT22;4472;52.092;9.820;2023-03-14T03:56:20;10.90;99.90
8872;DHT22;4472;52.092;9.820;2023-03-14T03:59:07;11.00;99.90
8872;DHT22;4472;52.092;9.820;2023-03-14T04:01:54;11.00;99.90
8872;DHT22;4472;52.092;9.820;2023-03-14T04:04:41;11.10;99.90
8872;DHT22;4472;52.092;9.820;2023-03-14T04:07:30;11.00;99.90
8872;DHT22;4472;52.092;9.820;2023-03-14T04:10:19;11.00;99.90
8872;DHT22;4472;52.092;9.820;2023-03-14T04:13:06;10.90;99.90
8872;DHT22;4472;52.092;9.820;2023-03-14T04:15:54;10.70;99.90
8872;DHT22;4472;52.092;9.820;2023-03-14T04:18:41;10.50;99.90
8872;DHT22;4472;52.092;9.820;2023-03-14T04:21:29;10.30;99.90
8872;DHT22;4472;52.092;9.820;2023-03-14T04:24:16;10.20;99.90
8872;DHT22;4472;52.092;9.820;2023-03-14T04:27:05;10.10;99.90
8872;DHT22;4472;52.092;9.820;2023-03-14T04:29:52;10.10;99.90
8872;DHT22;4472;52.092;9.820;2023-03-14T04:32:39;10.00;99.90
8872;DHT22;4472;52.092;9.820;2023-03-14T04:35:26;10.00;99.90
8872;DHT22;4472;52.092;9.820;2023-03-14T04:38:13;10.00;99.90
8872;DHT22;4472;52.092;9.820;2023-03-14T04:41:01;10.30;99.90
8872;DHT22;4472;52.092;9.820;2023-03-14T04:43:49;10.00;99.90
8872;DHT22;4472;52.092;9.820;2023-03-14T04:46:36;10.00;99.90
8872;DHT22;4472;52.092;9.820;2023-03-14T04:49:24;10.00;99.90
8872;DHT22;4472;52.092;9.820;2023-03-14T04:52:11;10.00;99.90
8872;DHT22;4472;52.092;9.820;2023-03-14T04:54:58;10.00;99.90
8872;DHT22;4472;52.092;9.820;2023-03-14T04:57:45;9.90;99.90
8872;DHT22;4472;52.092;9.820;2023-03-14T05:00:34;10.00;99.90
8872;DHT22;4472;52.092;9.820;2023-03-14T05:03:21;10.00;99.90
8872;DHT22;4472;52.092;9.820;2023-03-14T05:06:08;10.00;99.90
8872;DHT22;4472;52.092;9.820;2023-03-14T05:08:55;10.10;99.90
8872;DHT22;4472;52.092;9.820;2023-03-14T05:11:42;10.10;99.90
8872;DHT22;4472;52.092;9.820;2023-03-14T05:14:30;10.00;99.90
8872;DHT22;4472;52.092;9.820;2023-03-14T05:17:18;10.00;99.90
8872;DHT22;4472;52.092;9.820;2023-03-14T05:20:06;10.00;99.90
8872;DHT22;4472;52.092;9.820;2023-03-14T05:22:58;9.90;99.90
8872;DHT22;4472;52.092;9.820;2023-03-14T05:25:45;9.90;99.90
8872;DHT22;4472;52.092;9.820;2023-03-14T05:28:32;9.80;99.90
8872;DHT22;4472;52.092;9.820;2023-03-14T05:31:20;9.70;99.90
8872;DHT22;4472;52.092;9.820;2023-03-14T05:34:08;9.60;99.90
8872;DHT22;4472;52.092;9.820;2023-03-14T05:36:55;9.60;99.90
8872;DHT22;4472;52.092;9.820;2023-03-14T05:39:43;9.50;99.90
8872;DHT22;4472;52.092;9.820;2023-03-14T05:42:30;9.50;99.90
8872;DHT22;4472;52.092;9.820;2023-03-14T05:45:17;9.40;99.90
8872;DHT22;4472;52.092;9.820;2023-03-14T05:48:04;9.40;99.90
8872;DHT22;4472;52.092;9.820;2023-03-14T05:50:56;9.40;99.90
8872;DHT22;4472;52.092;9.820;2023-03-14T05:53:43;9.40;99.90
8872;DHT22;4472;52.092;9.820;2023-03-14T05:56:30;9.40;99.90
8872;DHT22;4472;52.092;9.820;2023-03-14T05:59:17;9.40;99.90
8872;DHT22;4472;52.092;9.820;2023-03-14T06:02:04;9.40;99.90
8872;DHT22;4472;52.092;9.820;2023-03-14T06:04:52;9.40;99.90
8872;DHT22;4472;52.092;9.820;2023-03-14T06:07:40;9.40;99.90
8872;DHT22;4472;52.092;9.820;2023-03-14T06:10:28;9.40;99.90
8872;DHT22;4472;52.092;9.820;2023-03-14T06:13:15;9.40;99.90
8872;DHT22;4472;52.092;9.820;2023-03-14T06:16:02;9.50;99.90
8872;DHT22;4472;52.092;9.820;2023-03-14T06:18:49;9.60;99.90
8872;DHT22;4472;52.092;9.820;2023-03-14T06:21:38;9.70;99.90
8872;DHT22;4472;52.092;9.820;2023-03-14T06:24:26;9.80;99.90
8872;DHT22;4472;52.092;9.820;2023-03-14T06:27:13;9.90;99.90
8872;DHT22;4472;52.092;9.820;2023-03-14T06:30:00;10.00;99.90
8872;DHT22;4472;52.092;9.820;2023-03-14T06:32:47;10.00;99.90
8872;DHT22;4472;52.092;9.820;2023-03-14T06:35:35;10.10;99.90
8872;DHT22;4472;52.092;9.820;2023-03-14T06:38:22;10.10;99.90
8872;DHT22;4472;52.092;9.820;2023-03-14T06:41:10;10.20;99.90
8872;DHT22;4472;52.092;9.820;2023-03-14T06:43:57;10.20;99.90
8872;DHT22;4472;52.092;9.820;2023-03-14T06:46:45;10.20;99.90
8872;DHT22;4472;52.092;9.820;2023-03-14T06:49:32;10.20;99.90
8872;DHT22;4472;52.092;9.820;2023-03-14T06:52:19;10.20;99.90
8872;DHT22;4472;52.092;9.820;2023-03-14T06:55:07;10.20;99.90
8872;DHT22;4472;52.092;9.820;2023-03-14T06:57:55;10.10;99.90
8872;DHT22;4472;52.092;9.820;2023-03-14T07:00:42;10.10;99.90
8872;DHT22;4472;52.092;9.820;2023-03-14T07:03:30;10.10;99.90
8872;DHT22;4472;52.092;9.820;2023-03-14T07:06:17;10.10;99.90
8872;DHT22;4472;52.092;9.820;2023-03-14T07:09:04;10.10;99.90
8872;DHT22;4472;52.092;9.820;2023-03-14T07:11:51;10.10;99.90
8872;DHT22;4472;52.092;9.820;2023-03-14T07:14:40;10.20;99.90
8872;DHT22;4472;52.092;9.820;2023-03-14T07:17:27;10.20;99.90
8872;DHT22;4472;52.092;9.820;2023-03-14T07:20:14;10.30;99.90
8872;DHT22;4472;52.092;9.820;2023-03-14T07:23:01;10.30;99.90
8872;DHT22;4472;52.092;9.820;2023-03-14T07:25:49;10.30;99.90
8872;DHT22;4472;52.092;9.820;2023-03-14T07:28:36;10.40;99.90
8872;DHT22;4472;52.092;9.820;2023-03-14T07:31:25;10.40;99.90
8872;DHT22;4472;52.092;9.820;2023-03-14T07:34:12;10.50;99.90
8872;DHT22;4472;52.092;9.820;2023-03-14T07:36:59;10.60;99.90
8872;DHT22;4472;52.092;9.820;2023-03-14T07:39:46;10.70;99.90
8872;DHT22;4472;52.092;9.820;2023-03-14T07:42:33;10.90;99.90
8872;DHT22;4472;52.092;9.820;2023-03-14T07:45:21;11.00;99.90
8872;DHT22;4472;52.092;9.820;2023-03-14T07:48:09;11.10;99.90
8872;DHT22;4472;52.092;9.820;2023-03-14T07:50:57;11.10;99.90
8872;DHT22;4472;52.092;9.820;2023-03-14T07:53:44;11.20;99.90
8872;DHT22;4472;52.092;9.820;2023-03-14T07:56:31;11.30;99.90
8872;DHT22;4472;52.092;9.820;2023-03-14T07:59:19;11.40;99.90
8872;DHT22;4472;52.092;9.820;2023-03-14T08:02:08;11.70;99.90
8872;DHT22;4472;52.092;9.820;2023-03-14T08:04:59;11.80;99.90
8872;DHT22;4472;52.092;9.820;2023-03-14T08:07:46;11.90;99.90
8872;DHT22;4472;52.092;9.820;2023-03-14T08:10:33;12.10;99.90
8872;DHT22;4472;52.092;9.820;2023-03-14T08:13:20;12.30;99.90
8872;DHT22;4472;52.092;9.820;2023-03-14T08:16:09;12.50;99.90
8872;DHT22;4472;52.092;9.820;2023-03-14T08:18:56;12.50;99.90
8872;DHT22;4472;52.092;9.820;2023-03-14T08:21:45;12.40;99.90
8872;DHT22;4472;52.092;9.820;2023-03-14T08:24:32;12.30;99.90
8872;DHT22;4472;52.092;9.820;2023-03-14T08:27:19;12.20;99.90
8872;DHT22;4472;52.092;9.820;2023-03-14T08:30:09;12.20;99.90
8872;DHT22;4472;52.092;9.820;2023-03-14T08:32:57;12.00;99.90
8872;DHT22;4472;52.092;9.820;2023-03-14T08:35:44;11.90;99.90
8872;DHT22;4472;52.092;9.820;2023-03-14T08:38:35;12.00;99.90
8872;DHT22;4472;52.092;9.820;2023-03-14T08:41:22;12.10;99.90
8872;DHT22;4472;52.092;9.820;2023-03-14T08:44:10;12.10;99.90
8872;DHT22;4472;52.092;9.820;2023-03-14T08:46:58;12.20;99.90
8872;DHT22;4472;52.092;9.820;2023-03-14T08:49:45;11.80;99.90
8872;DHT22;4472;52.092;9.820;2023-03-14T08:52:32;12.20;99.90
8872;DHT22;4472;52.092;9.820;2023-03-14T08:55:21;12.30;99.90
8872;DHT22;4472;52.092;9.820;2023-03-14T08:58:08;12.50;99.90
8872;DHT22;4472;52.092;9.820;2023-03-14T09:00:55;12.60;99.90
8872;DHT22;4472;52.092;9.820;2023-03-14T09:03:43;12.50;99.90
8872;DHT22;4472;52.092;9.820;2023-03-14T09:06:31;12.50;99.90
8872;DHT22;4472;52.092;9.820;2023-03-14T09:09:18;12.40;99.90
8872;DHT22;4472;52.092;9.820;2023-03-14T09:12:07;12.50;99.90
8872;DHT22;4472;52.092;9.820;2023-03-14T09:14:54;12.60;99.90
8872;DHT22;4472;52.092;9.820;2023-03-14T09:17:42;12.70;99.90
8872;DHT22;4472;52.092;9.820;2023-03-14T09:20:30;12.60;99.90
8872;DHT22;4472;52.092;9.820;2023-03-14T09:23:17;12.60;99.90
8872;DHT22;4472;52.092;9.820;2023-03-14T09:26:04;12.60;99.90
8872;DHT22;4472;52.092;9.820;2023-03-14T09:28:53;12.60;99.90
8872;DHT22;4472;52.092;9.820;2023-03-14T09:31:40;12.60;99.90
8872;DHT22;4472;52.092;9.820;2023-03-14T09:34:27;12.50;99.90
8872;DHT22;4472;52.092;9.820;2023-03-14T09:37:14;12.50;99.90
8872;DHT22;4472;52.092;9.820;2023-03-14T09:40:03;12.50;99.90
8872;DHT22;4472;52.092;9.820;2023-03-14T09:42:56;12.70;99.90
8872;DHT22;4472;52.092;9.820;2023-03-14T09:45:48;12.80;99.90
8872;DHT22;4472;52.092;9.820;2023-03-14T09:48:35;13.20;99.90
8872;DHT22;4472;52.092;9.820;2023-03-14T09:51:22;13.40;99.90
8872;DHT22;4472;52.092;9.820;2023-03-14T09:54:24;13.60;99.90
8872;DHT22;4472;52.092;9.820;2023-03-14T09:57:16;13.60;99.90
8872;DHT22;4472;52.092;9.820;2023-03-14T10:00:06;13.50;99.90
8872;DHT22;4472;52.092;9.820;2023-03-14T10:03:22;13.30;99.90
8872;DHT22;4472;52.092;9.820;2023-03-14T10:06:11;13.30;99.90
8872;DHT22;4472;52.092;9.820;2023-03-14T10:08:59;13.30;99.90
8872;DHT22;4472;52.092;9.820;2023-03-14T10:11:47;13.40;99.90
8872;DHT22;4472;52.092;9.820;2023-03-14T10:14:36;13.60;99.90
8872;DHT22;4472;52.092;9.820;2023-03-14T10:17:23;13.90;99.90
8872;DHT22;4472;52.092;9.820;2023-03-14T10:20:29;14.00;99.90
8872;DHT22;4472;52.092;9.820;2023-03-14T10:23:23;14.20;99.90
8872;DHT22;4472;52.092;9.820;2023-03-14T10:26:13;14.30;99.90
8872;DHT22;4472;52.092;9.820;2023-03-14T10:29:02;14.10;99.90
8872;DHT22;4472;52.092;9.820;2023-03-14T10:31:53;14.10;99.90
8872;DHT22;4472;52.092;9.820;2023-03-14T10:34:40;14.00;99.90
8872;DHT22;4472;52.092;9.820;2023-03-14T10:37:29;13.90;99.90
8872;DHT22;4472;52.092;9.820;2023-03-14T10:40:18;13.90;99.90
8872;DHT22;4472;52.092;9.820;2023-03-14T10:43:12;14.00;99.90
8872;DHT22;4472;52.092;9.820;2023-03-14T10:46:05;13.90;99.90
8872;DHT22;4472;52.092;9.820;2023-03-14T10:48:53;13.90;99.90
8872;DHT22;4472;52.092;9.820;2023-03-14T10:51:41;13.80;99.90
8872;DHT22;4472;52.092;9.820;2023-03-14T10:54:30;13.70;99.90
8872;DHT22;4472;52.092;9.820;2023-03-14T10:57:19;13.70;99.90
8872;DHT22;4472;52.092;9.820;2023-03-14T11:00:14;13.70;99.90
8872;DHT22;4472;52.092;9.820;2023-03-14T11:03:08;13.70;99.90
8872;DHT22;4472;52.092;9.820;2023-03-14T11:05:57;13.60;99.90
8872;DHT22;4472;52.092;9.820;2023-03-14T11:08:49;13.60;99.90
8872;DHT22;4472;52.092;9.820;2023-03-14T11:11:45;13.50;99.90
8872;DHT22;4472;52.092;9.820;2023-03-14T11:14:36;13.40;99.90
8872;DHT22;4472;52.092;9.820;2023-03-14T11:17:30;13.20;99.90
8872;DHT22;4472;52.092;9.820;2023-03-14T11:20:30;13.10;99.90
8872;DHT22;4472;52.092;9.820;2023-03-14T11:23:21;13.00;99.90
8872;DHT22;4472;52.092;9.820;2023-03-14T11:26:20;12.90;99.90
8872;DHT22;4472;52.092;9.820;2023-03-14T11:29:21;12.70;99.90
8872;DHT22;4472;52.092;9.820;2023-03-14T11:32:13;12.50;99.90
8872;DHT22;4472;52.092;9.820;2023-03-14T11:35:03;12.30;99.90
8872;DHT22;4472;52.092;9.820;2023-03-14T11:37:54;12.30;99.90
8872;DHT22;4472;52.092;9.820;2023-03-14T11:40:43;12.30;99.90
8872;DHT22;4472;52.092;9.820;2023-03-14T11:43:33;12.30;99.90
8872;DHT22;4472;52.092;9.820;2023-03-14T11:46:27;12.40;99.90
8872;DHT22;4472;52.092;9.820;2023-03-14T11:49:25;12.40;99.90
8872;DHT22;4472;52.092;9.820;2023-03-14T11:52:19;12.40;99.90
8872;DHT22;4472;52.092;9.820;2023-03-14T11:55:10;12.20;99.90
8872;DHT22;4472;52.092;9.820;2023-03-14T11:58:03;11.00;99.90
8872;DHT22;4472;52.092;9.820;2023-03-14T12:00:51;9.70;99.90
8872;DHT22;4472;52.092;9.820;2023-03-14T12:03:44;8.90;99.90
8872;DHT22;4472;52.092;9.820;2023-03-14T12:06:36;8.30;99.90
8872;DHT22;4472;52.092;9.820;2023-03-14T12:09:25;8.00;99.90
8872;DHT22;4472;52.092;9.820;2023-03-14T12:12:16;7.70;99.90
8872;DHT22;4472;52.092;9.820;2023-03-14T12:15:05;7.60;99.90
8872;DHT22;4472;52.092;9.820;2023-03-14T12:18:19;7.30;99.90
8872;DHT22;4472;52.092;9.820;2023-03-14T12:21:09;7.00;99.90
8872;DHT22;4472;52.092;9.820;2023-03-14T12:23:58;6.70;99.90
8872;DHT22;4472;52.092;9.820;2023-03-14T12:26:52;6.60;99.90
8872;DHT22;4472;52.092;9.820;2023-03-14T12:29:57;6.50;99.90
8872;DHT22;4472;52.092;9.820;2023-03-14T12:33:27;6.20;99.90
8872;DHT22;4472;52.092;9.820;2023-03-14T12:37:00;5.90;99.90
8872;DHT22;4472;52.092;9.820;2023-03-14T12:43:01;5.40;99.90
8872;DHT22;4472;52.092;9.820;2023-03-14T12:46:06;5.10;99.90
8872;DHT22;4472;52.092;9.820;2023-03-14T12:48:55;5.00;99.90
8872;DHT22;4472;52.092;9.820;2023-03-14T12:51:43;4.90;99.90
8872;DHT22;4472;52.092;9.820;2023-03-14T12:54:39;4.80;99.90
8872;DHT22;4472;52.092;9.820;2023-03-14T12:57:29;4.70;99.90
8872;DHT22;4472;52.092;9.820;2023-03-14T13:00:20;4.60;99.90
8872;DHT22;4472;52.092;9.820;2023-03-14T13:03:19;4.50;99.90
8872;DHT22;4472;52.092;9.820;2023-03-14T13:06:09;4.50;99.90
8872;DHT22;4472;52.092;9.820;2023-03-14T13:08:57;4.60;99.90
8872;DHT22;4472;52.092;9.820;2023-03-14T13:11:46;4.70;99.90
8872;DHT22;4472;52.092;9.820;2023-03-14T13:14:33;4.60;99.90
8872;DHT22;4472;52.092;9.820;2023-03-14T13:17:26;4.70;99.90
8872;DHT22;4472;52.092;9.820;2023-03-14T13:20:18;4.00;99.90
8872;DHT22;4472;52.092;9.820;2023-03-14T13:23:19;4.80;99.90
8872;DHT22;4472;52.092;9.820;2023-03-14T13:26:13;4.80;99.90
8872;DHT22;4472;52.092;9.820;2023-03-14T13:29:08;4.80;99.90
8872;DHT22;4472;52.092;9.820;2023-03-14T13:31:58;4.90;99.90
8872;DHT22;4472;52.092;9.820;2023-03-14T13:34:45;4.90;99.90
8872;DHT22;4472;52.092;9.820;2023-03-14T13:37:39;4.90;99.90
8872;DHT22;4472;52.092;9.820;2023-03-14T13:40:30;4.90;99.90
8872;DHT22;4472;52.092;9.820;2023-03-14T13:43:19;5.00;99.90
8872;DHT22;4472;52.092;9.820;2023-03-14T13:46:13;5.00;99.90
8872;DHT22;4472;52.092;9.820;2023-03-14T13:49:03;5.10;99.90
8872;DHT22;4472;52.092;9.820;2023-03-14T13:51:50;5.20;99.90
8872;DHT22;4472;52.092;9.820;2023-03-14T13:54:38;5.30;99.90
8872;DHT22;4472;52.092;9.820;2023-03-14T13:57:26;5.30;99.90
8872;DHT22;4472;52.092;9.820;2023-03-14T14:00:19;5.40;99.90
8872;DHT22;4472;52.092;9.820;2023-03-14T14:03:10;5.50;99.90
8872;DHT22;4472;52.092;9.820;2023-03-14T14:05:58;5.60;99.90
8872;DHT22;4472;52.092;9.820;2023-03-14T14:08:45;5.80;99.90
8872;DHT22;4472;52.092;9.820;2023-03-14T14:11:42;5.90;99.90
8872;DHT22;4472;52.092;9.820;2023-03-14T14:14:33;5.90;99.90
8872;DHT22;4472;52.092;9.820;2023-03-14T14:17:25;5.90;99.90
8872;DHT22;4472;52.092;9.820;2023-03-14T14:20:22;6.00;99.90
8872;DHT22;4472;52.092;9.820;2023-03-14T14:23:12;6.10;99.90
8872;DHT22;4472;52.092;9.820;2023-03-14T14:26:00;6.20;99.90
8872;DHT22;4472;52.092;9.820;2023-03-14T14:28:58;6.20;99.90
8872;DHT22;4472;52.092;9.820;2023-03-14T14:31:45;6.30;99.90
8872;DHT22;4472;52.092;9.820;2023-03-14T14:34:39;6.20;99.90
8872;DHT22;4472;52.092;9.820;2023-03-14T14:37:30;6.30;99.90
8872;DHT22;4472;52.092;9.820;2023-03-14T14:40:20;6.30;99.90
8872;DHT22;4472;52.092;9.820;2023-03-14T14:43:16;6.40;99.90
8872;DHT22;4472;52.092;9.820;2023-03-14T14:46:06;6.30;99.90
8872;DHT22;4472;52.092;9.820;2023-03-14T14:48:56;6.30;99.90
8872;DHT22;4472;52.092;9.820;2023-03-14T14:51:47;6.30;99.90
8872;DHT22;4472;52.092;9.820;2023-03-14T14:54:38;6.20;99.90
8872;DHT22;4472;52.092;9.820;2023-03-14T14:57:28;6.00;99.90
8872;DHT22;4472;52.092;9.820;2023-03-14T15:00:19;6.00;99.90
8872;DHT22;4472;52.092;9.820;2023-03-14T15:03:12;6.00;99.90
8872;DHT22;4472;52.092;9.820;2023-03-14T15:06:00;6.00;99.90
8872;DHT22;4472;52.092;9.820;2023-03-14T15:08:48;6.10;99.90
8872;DHT22;4472;52.092;9.820;2023-03-14T15:11:37;6.20;99.90
8872;DHT22;4472;52.092;9.820;2023-03-14T15:14:24;6.30;99.90
8872;DHT22;4472;52.092;9.820;2023-03-14T15:17:11;6.40;99.90
8872;DHT22;4472;52.092;9.820;2023-03-14T15:19:58;6.40;99.90
8872;DHT22;4472;52.092;9.820;2023-03-14T15:22:46;6.50;99.90
8872;DHT22;4472;52.092;9.820;2023-03-14T15:25:33;6.40;99.90
8872;DHT22;4472;52.092;9.820;2023-03-14T15:28:23;6.30;99.90
8872;DHT22;4472;52.092;9.820;2023-03-14T15:31:11;6.20;99.90
8872;DHT22;4472;52.092;9.820;2023-03-14T15:33:58;6.10;99.90
8872;DHT22;4472;52.092;9.820;2023-03-14T15:36:45;6.00;99.90
8872;DHT22;4472;52.092;9.820;2023-03-14T15:39:33;5.90;99.90
8872;DHT22;4472;52.092;9.820;2023-03-14T15:42:20;6.00;99.90
8872;DHT22;4472;52.092;9.820;2023-03-14T15:45:10;6.20;99.90
8872;DHT22;4472;52.092;9.820;2023-03-14T15:47:57;6.30;99.90
8872;DHT22;4472;52.092;9.820;2023-03-14T15:50:44;6.40;99.90
8872;DHT22;4472;52.092;9.820;2023-03-14T15:53:31;6.40;99.90
8872;DHT22;4472;52.092;9.820;2023-03-14T15:56:20;6.30;99.90
8872;DHT22;4472;52.092;9.820;2023-03-14T15:59:09;6.30;99.90
8872;DHT22;4472;52.092;9.820;2023-03-14T16:01:58;6.20;99.90
8872;DHT22;4472;52.092;9.820;2023-03-14T16:04:45;6.20;99.90
8872;DHT22;4472;52.092;9.820;2023-03-14T16:07:32;6.10;99.90
8872;DHT22;4472;52.092;9.820;2023-03-14T16:10:20;6.00;99.90
8872;DHT22;4472;52.092;9.820;2023-03-14T16:13:07;6.00;99.90
8872;DHT22;4472;52.092;9.820;2023-03-14T16:15:55;6.00;99.90
8872;DHT22;4472;52.092;9.820;2023-03-14T16:18:44;5.90;99.90
8872;DHT22;4472;52.092;9.820;2023-03-14T16:21:31;5.90;99.90
8872;DHT22;4472;52.092;9.820;2023-03-14T16:24:19;5.90;99.90
8872;DHT22;4472;52.092;9.820;2023-03-14T16:27:06;5.90;99.90
8872;DHT22;4472;52.092;9.820;2023-03-14T16:29:53;5.90;99.90
8872;DHT22;4472;52.092;9.820;2023-03-14T16:32:40;5.90;99.90
8872;DHT22;4472;52.092;9.820;2023-03-14T16:35:29;5.90;99.90
8872;DHT22;4472;52.092;9.820;2023-03-14T16:38:16;5.90;99.90
8872;DHT22;4472;52.092;9.820;2023-03-14T16:41:05;5.80;99.80
8872;DHT22;4472;52.092;9.820;2023-03-14T16:43:53;5.80;99.90
8872;DHT22;4472;52.092;9.820;2023-03-14T16:46:41;5.80;99.90
8872;DHT22;4472;52.092;9.820;2023-03-14T16:49:28;5.80;98.90
8872;DHT22;4472;52.092;9.820;2023-03-14T16:52:16;5.80;97.90
8872;DHT22;4472;52.092;9.820;2023-03-14T16:55:04;5.70;97.80
8872;DHT22;4472;52.092;9.820;2023-03-14T16:57:52;5.80;98.50
8872;DHT22;4472;52.092;9.820;2023-03-14T17:00:39;5.70;99.20
8872;DHT22;4472;52.092;9.820;2023-03-14T17:03:26;5.70;99.70
8872;DHT22;4472;52.092;9.820;2023-03-14T17:06:15;5.70;97.70
8872;DHT22;4472;52.092;9.820;2023-03-14T17:09:05;5.70;98.50
8872;DHT22;4472;52.092;9.820;2023-03-14T17:11:52;5.60;98.60
8872;DHT22;4472;52.092;9.820;2023-03-14T17:14:40;5.60;99.20
8872;DHT22;4472;52.092;9.820;2023-03-14T17:17:27;5.50;98.80
8872;DHT22;4472;52.092;9.820;2023-03-14T17:20:14;5.50;99.20
8872;DHT22;4472;52.092;9.820;2023-03-14T17:23:02;5.50;99.30
8872;DHT22;4472;52.092;9.820;2023-03-14T17:25:51;5.50;98.70
8872;DHT22;4472;52.092;9.820;2023-03-14T17:28:38;5.50;98.70
8872;DHT22;4472;52.092;9.820;2023-03-14T17:31:25;5.40;98.90
8872;DHT22;4472;52.092;9.820;2023-03-14T17:34:12;5.40;99.20
8872;DHT22;4472;52.092;9.820;2023-03-14T17:37:00;5.30;98.60
8872;DHT22;4472;52.092;9.820;2023-03-14T17:39:47;5.20;98.90
8872;DHT22;4472;52.092;9.820;2023-03-14T17:42:35;5.20;99.00
8872;DHT22;4472;52.092;9.820;2023-03-14T17:45:22;5.10;99.00
8872;DHT22;4472;52.092;9.820;2023-03-14T17:48:10;5.10;99.60
8872;DHT22;4472;52.092;9.820;2023-03-14T17:50:57;5.10;99.60
8872;DHT22;4472;52.092;9.820;2023-03-14T17:53:44;5.10;99.80
8872;DHT22;4472;52.092;9.820;2023-03-14T17:56:31;5.10;99.80
8872;DHT22;4472;52.092;9.820;2023-03-14T17:59:20;5.10;99.90
8872;DHT22;4472;52.092;9.820;2023-03-14T18:02:08;5.10;99.90
8872;DHT22;4472;52.092;9.820;2023-03-14T18:04:56;5.10;99.90
8872;DHT22;4472;52.092;9.820;2023-03-14T18:07:43;5.10;99.80
8872;DHT22;4472;52.092;9.820;2023-03-14T18:10:30;5.10;99.90
8872;DHT22;4472;52.092;9.820;2023-03-14T18:13:17;5.10;99.70
8872;DHT22;4472;52.092;9.820;2023-03-14T18:16:07;5.00;99.60
8872;DHT22;4472;52.092;9.820;2023-03-14T18:18:54;5.00;99.70
8872;DHT22;4472;52.092;9.820;2023-03-14T18:21:42;4.90;99.70
8872;DHT22;4472;52.092;9.820;2023-03-14T18:24:30;4.80;99.30
8872;DHT22;4472;52.092;9.820;2023-03-14T18:27:17;4.70;99.40
8872;DHT22;4472;52.092;9.820;2023-03-14T18:30:05;4.60;99.60
8872;DHT22;4472;52.092;9.820;2023-03-14T18:32:54;4.50;99.60
8872;DHT22;4472;52.092;9.820;2023-03-14T18:35:41;4.40;99.90
8872;DHT22;4472;52.092;9.820;2023-03-14T18:38:28;4.30;99.90